Old Orchard Beach, Maine
Current Conditions -  °F | °C
As of 12:07 AM on Tuesday 23 Dec 2014 (Local Time) from KPWM Reporting Station
Overcast Overcast  
Wind Chill: 31°   Ceiling: 400
Heat Index: 35°   Visibility: 7mi
Dew Point: 33°   Wind: 5mph
Humidity: 92%   Direction: 320°NW
Pressure: 30.35"   Gusts: NA
Location:  43.52°N, 70.38°W
Report Text: KPWM 230507Z 32004KT 7SM BKN004 BKN025 OVC033 02/01 A3035 RMK AO2 T00170006
Loading
Personal Weather Stations






























Interactive Weather Map New forecast layout! Learn more

10-Day Weather Forecast

Advertisements
Track Severe Weather on mobile